sensor_id;sensor_type;location;lat;lon;timestamp;temperature;humidity
66213;SHT31;53015;50.046;8.238;2023-02-10T00:00:14;-1.44;85.03
66213;SHT31;53015;50.046;8.238;2023-02-10T00:02:40;-1.24;84.45
66213;SHT31;53015;50.046;8.238;2023-02-10T00:05:06;-1.29;84.19
66213;SHT31;53015;50.046;8.238;2023-02-10T00:07:31;-1.48;84.43
66213;SHT31;53015;50.046;8.238;2023-02-10T00:09:57;-1.92;85.63
66213;SHT31;53015;50.046;8.238;2023-02-10T00:12:22;-2.17;86.65
66213;SHT31;53015;50.046;8.238;2023-02-10T00:14:49;-2.32;87.56
66213;SHT31;53015;50.046;8.238;2023-02-10T00:17:14;-2.37;87.71
66213;SHT31;53015;50.046;8.238;2023-02-10T00:19:40;-2.25;87.76
66213;SHT31;53015;50.046;8.238;2023-02-10T00:22:05;-1.88;87.04
66213;SHT31;53015;50.046;8.238;2023-02-10T00:24:31;-1.86;86.31
66213;SHT31;53015;50.046;8.238;2023-02-10T00:26:57;-1.72;85.72
66213;SHT31;53015;50.046;8.238;2023-02-10T00:29:22;-2.00;85.72
66213;SHT31;53015;50.046;8.238;2023-02-10T00:31:49;-1.88;85.83
66213;SHT31;53015;50.046;8.238;2023-02-10T00:34:16;-1.86;85.74
66213;SHT31;53015;50.046;8.238;2023-02-10T00:36:43;-1.74;85.71
66213;SHT31;53015;50.046;8.238;2023-02-10T00:39:12;-1.99;85.71
66213;SHT31;53015;50.046;8.238;2023-02-10T00:41:38;-2.09;86.50
66213;SHT31;53015;50.046;8.238;2023-02-10T00:44:03;-1.83;85.96
66213;SHT31;53015;50.046;8.238;2023-02-10T00:46:29;-1.88;86.18
66213;SHT31;53015;50.046;8.238;2023-02-10T00:48:55;-1.93;86.03
66213;SHT31;53015;50.046;8.238;2023-02-10T00:51:21;-1.85;86.31
66213;SHT31;53015;50.046;8.238;2023-02-10T00:53:47;-1.81;86.03
66213;SHT31;53015;50.046;8.238;2023-02-10T00:56:12;-1.81;85.55
66213;SHT31;53015;50.046;8.238;2023-02-10T00:58:38;-2.17;86.48
66213;SHT31;53015;50.046;8.238;2023-02-10T01:01:04;-1.92;86.03
66213;SHT31;53015;50.046;8.238;2023-02-10T01:03:30;-1.83;85.51
66213;SHT31;53015;50.046;8.238;2023-02-10T01:05:56;-1.93;85.79
66213;SHT31;53015;50.046;8.238;2023-02-10T01:08:22;-2.00;85.84
66213;SHT31;53015;50.046;8.238;2023-02-10T01:10:48;-2.41;86.58
66213;SHT31;53015;50.046;8.238;2023-02-10T01:13:14;-2.33;87.06
66213;SHT31;53015;50.046;8.238;2023-02-10T01:15:45;-2.41;86.75
66213;SHT31;53015;50.046;8.238;2023-02-10T01:18:10;-2.26;86.83
66213;SHT31;53015;50.046;8.238;2023-02-10T01:20:38;-2.05;86.01
66213;SHT31;53015;50.046;8.238;2023-02-10T01:23:05;-1.89;85.29
66213;SHT31;53015;50.046;8.238;2023-02-10T01:25:32;-1.90;85.22
66213;SHT31;53015;50.046;8.238;2023-02-10T01:27:57;-1.86;84.71
66213;SHT31;53015;50.046;8.238;2023-02-10T01:30:23;-1.99;85.15
66213;SHT31;53015;50.046;8.238;2023-02-10T01:32:52;-1.88;84.99
66213;SHT31;53015;50.046;8.238;2023-02-10T01:35:17;-1.93;85.47
66213;SHT31;53015;50.046;8.238;2023-02-10T01:37:43;-2.00;85.60
66213;SHT31;53015;50.046;8.238;2023-02-10T01:40:10;-1.99;85.66
66213;SHT31;53015;50.046;8.238;2023-02-10T01:42:35;-2.05;85.76
66213;SHT31;53015;50.046;8.238;2023-02-10T01:45:18;-2.25;86.35
66213;SHT31;53015;50.046;8.238;2023-02-10T01:47:45;-2.41;86.79
66213;SHT31;53015;50.046;8.238;2023-02-10T01:50:12;-2.19;86.40
66213;SHT31;53015;50.046;8.238;2023-02-10T01:52:38;-2.00;86.05
66213;SHT31;53015;50.046;8.238;2023-02-10T01:55:07;-1.88;85.72
66213;SHT31;53015;50.046;8.238;2023-02-10T01:57:33;-1.61;84.45
66213;SHT31;53015;50.046;8.238;2023-02-10T02:00:01;-1.60;84.19
66213;SHT31;53015;50.046;8.238;2023-02-10T02:02:28;-1.34;83.92
66213;SHT31;53015;50.046;8.238;2023-02-10T02:04:58;-1.23;83.56
66213;SHT31;53015;50.046;8.238;2023-02-10T02:07:26;-1.14;82.76
66213;SHT31;53015;50.046;8.238;2023-02-10T02:09:53;-1.16;82.89
66213;SHT31;53015;50.046;8.238;2023-02-10T02:12:27;-1.26;83.35
66213;SHT31;53015;50.046;8.238;2023-02-10T02:14:59;-1.58;84.00
66213;SHT31;53015;50.046;8.238;2023-02-10T02:17:30;-1.70;85.24
66213;SHT31;53015;50.046;8.238;2023-02-10T02:23:13;-1.46;84.61
66213;SHT31;53015;50.046;8.238;2023-02-10T02:25:58;-1.20;84.31
66213;SHT31;53015;50.046;8.238;2023-02-10T02:28:28;-0.95;83.45
66213;SHT31;53015;50.046;8.238;2023-02-10T02:31:30;-0.78;83.03
66213;SHT31;53015;50.046;8.238;2023-02-10T02:34:01;-1.09;84.15
66213;SHT31;53015;50.046;8.238;2023-02-10T02:36:30;-1.00;84.38
66213;SHT31;53015;50.046;8.238;2023-02-10T02:38:59;-0.75;83.70
66213;SHT31;53015;50.046;8.238;2023-02-10T02:41:26;-0.76;83.09
66213;SHT31;53015;50.046;8.238;2023-02-10T02:43:52;-0.54;82.42
66213;SHT31;53015;50.046;8.238;2023-02-10T02:46:24;-0.34;81.89
66213;SHT31;53015;50.046;8.238;2023-02-10T02:48:57;-0.27;81.77
66213;SHT31;53015;50.046;8.238;2023-02-10T02:51:34;-0.16;81.84
66213;SHT31;53015;50.046;8.238;2023-02-10T02:54:10;-0.20;81.85
66213;SHT31;53015;50.046;8.238;2023-02-10T02:56:43;-0.16;82.35
66213;SHT31;53015;50.046;8.238;2023-02-10T02:59:15;-0.23;82.75
66213;SHT31;53015;50.046;8.238;2023-02-10T03:01:45;-0.23;82.82
66213;SHT31;53015;50.046;8.238;2023-02-10T03:04:13;-0.16;82.38
66213;SHT31;53015;50.046;8.238;2023-02-10T03:06:40;-0.19;82.70
66213;SHT31;53015;50.046;8.238;2023-02-10T03:09:06;-0.27;83.08
66213;SHT31;53015;50.046;8.238;2023-02-10T03:11:32;-0.17;83.05
66213;SHT31;53015;50.046;8.238;2023-02-10T03:13:57;-0.13;82.84
66213;SHT31;53015;50.046;8.238;2023-02-10T03:16:23;-0.02;82.68
66213;SHT31;53015;50.046;8.238;2023-02-10T03:18:49;0.02;82.90
66213;SHT31;53015;50.046;8.238;2023-02-10T03:21:15;0.05;82.64
66213;SHT31;53015;50.046;8.238;2023-02-10T03:23:40;-0.03;83.16
66213;SHT31;53015;50.046;8.238;2023-02-10T03:26:06;-0.01;83.21
66213;SHT31;53015;50.046;8.238;2023-02-10T03:28:31;-0.03;82.76
66213;SHT31;53015;50.046;8.238;2023-02-10T03:30:57;-0.02;82.94
66213;SHT31;53015;50.046;8.238;2023-02-10T03:33:23;-0.13;83.01
66213;SHT31;53015;50.046;8.238;2023-02-10T03:35:49;-0.09;83.37
66213;SHT31;53015;50.046;8.238;2023-02-10T03:38:15;-0.14;83.71
66213;SHT31;53015;50.046;8.238;2023-02-10T03:40:41;-0.02;83.67
66213;SHT31;53015;50.046;8.238;2023-02-10T03:43:06;0.02;83.94
66213;SHT31;53015;50.046;8.238;2023-02-10T03:45:32;0.24;83.80
66213;SHT31;53015;50.046;8.238;2023-02-10T03:47:58;0.22;83.89
66213;SHT31;53015;50.046;8.238;2023-02-10T03:50:24;0.32;83.59
66213;SHT31;53015;50.046;8.238;2023-02-10T03:52:49;0.35;83.47
66213;SHT31;53015;50.046;8.238;2023-02-10T03:55:16;0.30;83.78
66213;SHT31;53015;50.046;8.238;2023-02-10T03:57:41;0.33;83.73
66213;SHT31;53015;50.046;8.238;2023-02-10T04:00:07;0.36;83.56
66213;SHT31;53015;50.046;8.238;2023-02-10T04:02:33;0.24;83.88
66213;SHT31;53015;50.046;8.238;2023-02-10T04:04:58;0.21;84.29
66213;SHT31;53015;50.046;8.238;2023-02-10T04:07:24;0.33;84.20
66213;SHT31;53015;50.046;8.238;2023-02-10T04:09:49;0.28;83.86
66213;SHT31;53015;50.046;8.238;2023-02-10T04:12:15;0.25;84.13
66213;SHT31;53015;50.046;8.238;2023-02-10T04:14:41;0.30;83.67
66213;SHT31;53015;50.046;8.238;2023-02-10T04:17:06;0.32;83.84
66213;SHT31;53015;50.046;8.238;2023-02-10T04:19:32;0.33;83.62
66213;SHT31;53015;50.046;8.238;2023-02-10T04:21:57;0.36;84.16
66213;SHT31;53015;50.046;8.238;2023-02-10T04:24:23;0.29;83.90
66213;SHT31;53015;50.046;8.238;2023-02-10T04:26:48;0.26;84.09
66213;SHT31;53015;50.046;8.238;2023-02-10T04:29:14;0.33;83.86
66213;SHT31;53015;50.046;8.238;2023-02-10T04:31:40;0.24;83.97
66213;SHT31;53015;50.046;8.238;2023-02-10T04:34:05;0.24;84.13
66213;SHT31;53015;50.046;8.238;2023-02-10T04:36:31;0.18;84.05
66213;SHT31;53015;50.046;8.238;2023-02-10T04:38:57;0.15;84.05
66213;SHT31;53015;50.046;8.238;2023-02-10T04:41:22;0.11;83.74
66213;SHT31;53015;50.046;8.238;2023-02-10T04:43:48;0.19;83.08
66213;SHT31;53015;50.046;8.238;2023-02-10T04:46:14;0.14;82.49
66213;SHT31;53015;50.046;8.238;2023-02-10T04:48:39;0.04;82.86
66213;SHT31;53015;50.046;8.238;2023-02-10T04:51:06;0.05;82.44
66213;SHT31;53015;50.046;8.238;2023-02-10T04:53:32;0.14;82.79
66213;SHT31;53015;50.046;8.238;2023-02-10T04:55:57;0.14;83.13
66213;SHT31;53015;50.046;8.238;2023-02-10T04:58:23;0.08;83.17
66213;SHT31;53015;50.046;8.238;2023-02-10T05:00:48;0.26;82.95
66213;SHT31;53015;50.046;8.238;2023-02-10T05:03:14;0.42;82.24
66213;SHT31;53015;50.046;8.238;2023-02-10T05:05:40;0.46;82.22
66213;SHT31;53015;50.046;8.238;2023-02-10T05:08:05;0.59;81.72
66213;SHT31;53015;50.046;8.238;2023-02-10T05:10:31;0.59;81.63
66213;SHT31;53015;50.046;8.238;2023-02-10T05:12:56;0.60;81.67
66213;SHT31;53015;50.046;8.238;2023-02-10T05:15:22;0.62;81.82
66213;SHT31;53015;50.046;8.238;2023-02-10T05:17:47;0.59;81.59
66213;SHT31;53015;50.046;8.238;2023-02-10T05:20:13;0.43;82.50
66213;SHT31;53015;50.046;8.238;2023-02-10T05:22:39;0.49;82.47
66213;SHT31;53015;50.046;8.238;2023-02-10T05:25:05;0.45;82.89
66213;SHT31;53015;50.046;8.238;2023-02-10T05:27:31;0.48;82.60
66213;SHT31;53015;50.046;8.238;2023-02-10T05:29:56;0.57;83.25
66213;SHT31;53015;50.046;8.238;2023-02-10T05:32:22;0.55;83.10
66213;SHT31;53015;50.046;8.238;2023-02-10T05:34:47;0.50;83.39
66213;SHT31;53015;50.046;8.238;2023-02-10T05:37:14;0.55;83.56
66213;SHT31;53015;50.046;8.238;2023-02-10T05:39:39;0.64;83.69
66213;SHT31;53015;50.046;8.238;2023-02-10T05:42:04;0.63;83.44
66213;SHT31;53015;50.046;8.238;2023-02-10T05:44:30;0.74;83.02
66213;SHT31;53015;50.046;8.238;2023-02-10T05:46:55;0.66;83.05
66213;SHT31;53015;50.046;8.238;2023-02-10T05:49:21;0.70;83.11
66213;SHT31;53015;50.046;8.238;2023-02-10T05:51:46;0.79;82.40
66213;SHT31;53015;50.046;8.238;2023-02-10T05:54:13;0.80;82.06
66213;SHT31;53015;50.046;8.238;2023-02-10T05:56:39;0.74;81.36
66213;SHT31;53015;50.046;8.238;2023-02-10T05:59:05;0.72;81.63
66213;SHT31;53015;50.046;8.238;2023-02-10T06:01:31;0.70;81.15
66213;SHT31;53015;50.046;8.238;2023-02-10T06:03:57;0.73;81.12
66213;SHT31;53015;50.046;8.238;2023-02-10T06:06:22;0.77;81.21
66213;SHT31;53015;50.046;8.238;2023-02-10T06:08:48;0.76;81.37
66213;SHT31;53015;50.046;8.238;2023-02-10T06:11:14;0.72;80.90
66213;SHT31;53015;50.046;8.238;2023-02-10T06:13:39;0.64;81.00
66213;SHT31;53015;50.046;8.238;2023-02-10T06:16:05;0.55;81.53
66213;SHT31;53015;50.046;8.238;2023-02-10T06:18:32;0.41;81.00
66213;SHT31;53015;50.046;8.238;2023-02-10T06:20:58;0.33;81.98
66213;SHT31;53015;50.046;8.238;2023-02-10T06:23:24;0.45;81.79
66213;SHT31;53015;50.046;8.238;2023-02-10T06:25:49;0.56;81.44
66213;SHT31;53015;50.046;8.238;2023-02-10T06:28:16;0.59;81.31
66213;SHT31;53015;50.046;8.238;2023-02-10T06:30:42;0.57;81.16
66213;SHT31;53015;50.046;8.238;2023-02-10T06:33:07;0.60;81.13
66213;SHT31;53015;50.046;8.238;2023-02-10T06:35:33;0.59;81.38
66213;SHT31;53015;50.046;8.238;2023-02-10T06:37:58;0.60;81.17
66213;SHT31;53015;50.046;8.238;2023-02-10T06:40:24;0.56;80.96
66213;SHT31;53015;50.046;8.238;2023-02-10T06:42:50;0.48;81.48
66213;SHT31;53015;50.046;8.238;2023-02-10T06:45:16;0.56;81.76
66213;SHT31;53015;50.046;8.238;2023-02-10T06:47:41;0.64;81.80
66213;SHT31;53015;50.046;8.238;2023-02-10T06:50:07;0.62;81.76
66213;SHT31;53015;50.046;8.238;2023-02-10T06:52:35;0.69;81.41
66213;SHT31;53015;50.046;8.238;2023-02-10T06:55:00;0.72;81.31
66213;SHT31;53015;50.046;8.238;2023-02-10T06:57:29;0.69;81.14
66213;SHT31;53015;50.046;8.238;2023-02-10T06:59:54;0.73;81.56
66213;SHT31;53015;50.046;8.238;2023-02-10T07:02:20;0.80;81.50
66213;SHT31;53015;50.046;8.238;2023-02-10T07:04:46;0.87;81.27
66213;SHT31;53015;50.046;8.238;2023-02-10T07:07:11;0.77;81.32
66213;SHT31;53015;50.046;8.238;2023-02-10T07:09:40;0.80;80.95
66213;SHT31;53015;50.046;8.238;2023-02-10T07:12:05;0.73;81.42
66213;SHT31;53015;50.046;8.238;2023-02-10T07:14:31;0.80;81.93
66213;SHT31;53015;50.046;8.238;2023-02-10T07:16:56;0.84;81.93
66213;SHT31;53015;50.046;8.238;2023-02-10T07:19:22;0.90;81.84
66213;SHT31;53015;50.046;8.238;2023-02-10T07:21:48;1.02;81.84
66213;SHT31;53015;50.046;8.238;2023-02-10T07:24:13;1.15;81.04
66213;SHT31;53015;50.046;8.238;2023-02-10T07:26:39;1.29;80.70
66213;SHT31;53015;50.046;8.238;2023-02-10T07:29:04;1.31;80.70
66213;SHT31;53015;50.046;8.238;2023-02-10T07:31:30;1.31;80.56
66213;SHT31;53015;50.046;8.238;2023-02-10T07:33:55;1.35;80.66
66213;SHT31;53015;50.046;8.238;2023-02-10T07:36:21;1.28;80.72
66213;SHT31;53015;50.046;8.238;2023-02-10T07:38:47;1.39;80.76
66213;SHT31;53015;50.046;8.238;2023-02-10T07:41:12;1.35;80.67
66213;SHT31;53015;50.046;8.238;2023-02-10T07:43:38;1.45;80.32
66213;SHT31;53015;50.046;8.238;2023-02-10T07:46:03;1.40;80.17
66213;SHT31;53015;50.046;8.238;2023-02-10T07:48:29;1.38;80.44
66213;SHT31;53015;50.046;8.238;2023-02-10T07:50:54;1.35;80.27
66213;SHT31;53015;50.046;8.238;2023-02-10T07:53:21;1.34;80.23
66213;SHT31;53015;50.046;8.238;2023-02-10T07:55:47;1.38;79.83
66213;SHT31;53015;50.046;8.238;2023-02-10T07:58:12;1.42;79.60
66213;SHT31;53015;50.046;8.238;2023-02-10T08:00:38;1.50;79.90
66213;SHT31;53015;50.046;8.238;2023-02-10T08:03:04;1.46;79.94
66213;SHT31;53015;50.046;8.238;2023-02-10T08:05:29;1.64;79.65
66213;SHT31;53015;50.046;8.238;2023-02-10T08:07:55;1.76;79.59
66213;SHT31;53015;50.046;8.238;2023-02-10T08:10:22;1.80;79.28
66213;SHT31;53015;50.046;8.238;2023-02-10T08:12:47;1.94;79.35
66213;SHT31;53015;50.046;8.238;2023-02-10T08:15:13;1.93;79.11
66213;SHT31;53015;50.046;8.238;2023-02-10T08:17:39;1.98;78.57
66213;SHT31;53015;50.046;8.238;2023-02-10T08:20:06;2.11;78.40
66213;SHT31;53015;50.046;8.238;2023-02-10T08:22:31;2.12;78.57
66213;SHT31;53015;50.046;8.238;2023-02-10T08:24:57;2.21;78.08
66213;SHT31;53015;50.046;8.238;2023-02-10T08:27:23;2.29;77.76
66213;SHT31;53015;50.046;8.238;2023-02-10T08:29:48;2.39;77.57
66213;SHT31;53015;50.046;8.238;2023-02-10T08:32:14;2.39;77.97
66213;SHT31;53015;50.046;8.238;2023-02-10T08:34:39;2.36;77.99
66213;SHT31;53015;50.046;8.238;2023-02-10T08:37:05;2.24;78.42
66213;SHT31;53015;50.046;8.238;2023-02-10T08:39:30;2.20;78.62
66213;SHT31;53015;50.046;8.238;2023-02-10T08:41:56;2.26;78.44
66213;SHT31;53015;50.046;8.238;2023-02-10T08:44:22;2.36;78.20
66213;SHT31;53015;50.046;8.238;2023-02-10T08:46:47;2.50;77.91
66213;SHT31;53015;50.046;8.238;2023-02-10T08:49:13;2.69;77.33
66213;SHT31;53015;50.046;8.238;2023-02-10T08:51:38;2.70;76.82
66213;SHT31;53015;50.046;8.238;2023-02-10T08:54:04;2.86;76.80
66213;SHT31;53015;50.046;8.238;2023-02-10T08:56:30;3.03;76.19
66213;SHT31;53015;50.046;8.238;2023-02-10T08:58:55;3.01;75.73
66213;SHT31;53015;50.046;8.238;2023-02-10T09:01:23;3.15;75.52
66213;SHT31;53015;50.046;8.238;2023-02-10T09:03:49;3.19;75.71
66213;SHT31;53015;50.046;8.238;2023-02-10T09:06:15;3.17;75.16
66213;SHT31;53015;50.046;8.238;2023-02-10T09:08:42;3.01;75.64
66213;SHT31;53015;50.046;8.238;2023-02-10T09:11:08;3.05;75.81
66213;SHT31;53015;50.046;8.238;2023-02-10T09:13:34;3.18;75.45
66213;SHT31;53015;50.046;8.238;2023-02-10T09:15:59;3.12;75.59
66213;SHT31;53015;50.046;8.238;2023-02-10T09:18:25;3.22;76.13
66213;SHT31;53015;50.046;8.238;2023-02-10T09:20:51;3.19;74.97
66213;SHT31;53015;50.046;8.238;2023-02-10T09:23:16;3.34;74.67
66213;SHT31;53015;50.046;8.238;2023-02-10T09:25:42;3.43;74.37
66213;SHT31;53015;50.046;8.238;2023-02-10T09:28:07;3.60;74.25
66213;SHT31;53015;50.046;8.238;2023-02-10T09:30:33;3.58;74.07
66213;SHT31;53015;50.046;8.238;2023-02-10T09:32:58;3.56;73.00
66213;SHT31;53015;50.046;8.238;2023-02-10T09:35:24;3.45;73.11
66213;SHT31;53015;50.046;8.238;2023-02-10T09:37:50;3.45;73.37
66213;SHT31;53015;50.046;8.238;2023-02-10T09:40:17;3.48;73.44
66213;SHT31;53015;50.046;8.238;2023-02-10T09:43:00;3.59;73.44
66213;SHT31;53015;50.046;8.238;2023-02-10T09:45:30;3.43;73.75
66213;SHT31;53015;50.046;8.238;2023-02-10T09:48:00;3.66;73.21
66213;SHT31;53015;50.046;8.238;2023-02-10T09:50:41;3.81;73.24
66213;SHT31;53015;50.046;8.238;2023-02-10T09:53:13;3.86;72.76
66213;SHT31;53015;50.046;8.238;2023-02-10T09:55:43;3.81;73.11
66213;SHT31;53015;50.046;8.238;2023-02-10T09:58:15;3.94;73.66
66213;SHT31;53015;50.046;8.238;2023-02-10T10:00:43;3.60;75.06
66213;SHT31;53015;50.046;8.238;2023-02-10T10:03:13;3.83;75.74
66213;SHT31;53015;50.046;8.238;2023-02-10T10:05:51;3.64;75.82
66213;SHT31;53015;50.046;8.238;2023-02-10T10:08:22;3.79;76.08
66213;SHT31;53015;50.046;8.238;2023-02-10T10:10:51;3.80;75.95
66213;SHT31;53015;50.046;8.238;2023-02-10T10:13:20;3.93;75.49
66213;SHT31;53015;50.046;8.238;2023-02-10T10:16:03;3.77;75.85
66213;SHT31;53015;50.046;8.238;2023-02-10T10:18:38;3.95;76.00
66213;SHT31;53015;50.046;8.238;2023-02-10T10:21:13;4.04;75.34
66213;SHT31;53015;50.046;8.238;2023-02-10T10:23:51;4.12;75.42
66213;SHT31;53015;50.046;8.238;2023-02-10T10:29:20;4.18;74.77
66213;SHT31;53015;50.046;8.238;2023-02-10T10:31:46;4.35;74.53
66213;SHT31;53015;50.046;8.238;2023-02-10T10:34:16;4.45;74.18
66213;SHT31;53015;50.046;8.238;2023-02-10T10:36:45;4.41;74.14
66213;SHT31;53015;50.046;8.238;2023-02-10T10:39:26;4.32;74.24
66213;SHT31;53015;50.046;8.238;2023-02-10T10:41:54;4.42;74.07
66213;SHT31;53015;50.046;8.238;2023-02-10T10:44:21;4.28;73.82
66213;SHT31;53015;50.046;8.238;2023-02-10T10:46:50;4.39;74.18
66213;SHT31;53015;50.046;8.238;2023-02-10T10:49:17;4.63;73.58
66213;SHT31;53015;50.046;8.238;2023-02-10T10:51:44;4.60;73.60
66213;SHT31;53015;50.046;8.238;2023-02-10T10:54:14;4.08;74.27
66213;SHT31;53015;50.046;8.238;2023-02-10T10:56:43;3.93;74.64
66213;SHT31;53015;50.046;8.238;2023-02-10T10:59:13;3.91;75.14
66213;SHT31;53015;50.046;8.238;2023-02-10T11:01:40;4.22;74.65
66213;SHT31;53015;50.046;8.238;2023-02-10T11:04:11;4.55;73.70
66213;SHT31;53015;50.046;8.238;2023-02-10T11:06:38;4.60;74.22
66213;SHT31;53015;50.046;8.238;2023-02-10T11:09:13;4.50;73.75
66213;SHT31;53015;50.046;8.238;2023-02-10T11:11:42;4.41;74.01
66213;SHT31;53015;50.046;8.238;2023-02-10T11:14:13;4.49;74.37
66213;SHT31;53015;50.046;8.238;2023-02-10T11:16:41;4.42;74.10
66213;SHT31;53015;50.046;8.238;2023-02-10T11:19:17;4.66;73.51
66213;SHT31;53015;50.046;8.238;2023-02-10T11:21:43;4.76;73.03
66213;SHT31;53015;50.046;8.238;2023-02-10T11:24:17;4.69;73.34
66213;SHT31;53015;50.046;8.238;2023-02-10T11:26:54;4.98;73.01
66213;SHT31;53015;50.046;8.238;2023-02-10T11:29:19;4.48;73.76
66213;SHT31;53015;50.046;8.238;2023-02-10T11:31:45;4.83;73.74
66213;SHT31;53015;50.046;8.238;2023-02-10T11:34:19;4.87;73.64
66213;SHT31;53015;50.046;8.238;2023-02-10T11:36:45;5.17;72.47
66213;SHT31;53015;50.046;8.238;2023-02-10T11:39:19;5.36;72.25
66213;SHT31;53015;50.046;8.238;2023-02-10T11:41:45;5.49;71.27
66213;SHT31;53015;50.046;8.238;2023-02-10T11:44:22;5.56;71.65
66213;SHT31;53015;50.046;8.238;2023-02-10T11:46:54;5.46;71.78
66213;SHT31;53015;50.046;8.238;2023-02-10T11:49:20;5.43;72.04
66213;SHT31;53015;50.046;8.238;2023-02-10T11:51:51;5.18;72.46
66213;SHT31;53015;50.046;8.238;2023-02-10T11:54:17;5.18;73.06
66213;SHT31;53015;50.046;8.238;2023-02-10T11:56:48;4.85;74.11
66213;SHT31;53015;50.046;8.238;2023-02-10T11:59:24;4.81;73.83
66213;SHT31;53015;50.046;8.238;2023-02-10T12:01:54;4.95;74.12
66213;SHT31;53015;50.046;8.238;2023-02-10T12:04:34;5.10;73.69
66213;SHT31;53015;50.046;8.238;2023-02-10T12:07:08;5.03;74.15
66213;SHT31;53015;50.046;8.238;2023-02-10T12:09:46;5.07;73.56
66213;SHT31;53015;50.046;8.238;2023-02-10T12:12:18;5.10;73.47
66213;SHT31;53015;50.046;8.238;2023-02-10T12:14:53;5.28;73.46
66213;SHT31;53015;50.046;8.238;2023-02-10T12:17:26;5.45;72.90
66213;SHT31;53015;50.046;8.238;2023-02-10T12:20:02;5.20;73.17
66213;SHT31;53015;50.046;8.238;2023-02-10T12:22:39;5.32;73.67
66213;SHT31;53015;50.046;8.238;2023-02-10T12:25:12;5.21;74.26
66213;SHT31;53015;50.046;8.238;2023-02-10T12:27:51;5.38;74.12
66213;SHT31;53015;50.046;8.238;2023-02-10T12:30:30;5.04;73.24
66213;SHT31;53015;50.046;8.238;2023-02-10T12:33:05;4.90;74.27
66213;SHT31;53015;50.046;8.238;2023-02-10T12:35:49;4.93;74.61
66213;SHT31;53015;50.046;8.238;2023-02-10T12:38:26;5.12;74.32
66213;SHT31;53015;50.046;8.238;2023-02-10T12:41:02;4.91;74.60
66213;SHT31;53015;50.046;8.238;2023-02-10T12:43:41;4.85;74.87
66213;SHT31;53015;50.046;8.238;2023-02-10T12:46:18;5.01;74.15
66213;SHT31;53015;50.046;8.238;2023-02-10T12:48:57;4.84;75.39
66213;SHT31;53015;50.046;8.238;2023-02-10T12:51:44;4.94;74.64
66213;SHT31;53015;50.046;8.238;2023-02-10T12:54:14;5.15;74.56
66213;SHT31;53015;50.046;8.238;2023-02-10T12:56:45;5.07;74.63
66213;SHT31;53015;50.046;8.238;2023-02-10T12:59:15;4.98;75.10
66213;SHT31;53015;50.046;8.238;2023-02-10T13:01:45;4.74;75.18
66213;SHT31;53015;50.046;8.238;2023-02-10T13:04:18;4.94;75.44
66213;SHT31;53015;50.046;8.238;2023-02-10T13:06:50;5.10;75.17
66213;SHT31;53015;50.046;8.238;2023-02-10T13:09:21;5.00;75.35
66213;SHT31;53015;50.046;8.238;2023-02-10T13:11:53;5.07;75.58
66213;SHT31;53015;50.046;8.238;2023-02-10T13:14:25;5.05;75.35
66213;SHT31;53015;50.046;8.238;2023-02-10T13:16:54;5.04;75.37
66213;SHT31;53015;50.046;8.238;2023-02-10T13:19:25;5.08;75.10
66213;SHT31;53015;50.046;8.238;2023-02-10T13:21:57;5.32;75.17
66213;SHT31;53015;50.046;8.238;2023-02-10T13:24:27;5.45;74.67
66213;SHT31;53015;50.046;8.238;2023-02-10T13:27:02;5.35;74.55
66213;SHT31;53015;50.046;8.238;2023-02-10T13:29:37;5.31;74.88
66213;SHT31;53015;50.046;8.238;2023-02-10T13:32:24;5.48;74.35
66213;SHT31;53015;50.046;8.238;2023-02-10T13:34:54;5.59;74.61
66213;SHT31;53015;50.046;8.238;2023-02-10T13:37:28;5.62;74.08
66213;SHT31;53015;50.046;8.238;2023-02-10T13:39:57;5.69;74.60
66213;SHT31;53015;50.046;8.238;2023-02-10T13:42:26;5.74;74.46
66213;SHT31;53015;50.046;8.238;2023-02-10T13:44:57;5.90;74.49
66213;SHT31;53015;50.046;8.238;2023-02-10T13:47:31;6.14;73.13
66213;SHT31;53015;50.046;8.238;2023-02-10T13:50:01;6.35;72.85
66213;SHT31;53015;50.046;8.238;2023-02-10T13:52:28;6.53;72.56
66213;SHT31;53015;50.046;8.238;2023-02-10T13:54:57;6.66;71.86
66213;SHT31;53015;50.046;8.238;2023-02-10T13:57:26;6.77;71.76
66213;SHT31;53015;50.046;8.238;2023-02-10T13:59:52;6.81;72.08
66213;SHT31;53015;50.046;8.238;2023-02-10T14:02:19;6.68;72.78
66213;SHT31;53015;50.046;8.238;2023-02-10T14:04:48;6.84;72.26
66213;SHT31;53015;50.046;8.238;2023-02-10T14:07:16;7.03;71.89
66213;SHT31;53015;50.046;8.238;2023-02-10T14:09:42;7.08;71.15
66213;SHT31;53015;50.046;8.238;2023-02-10T14:12:24;7.14;71.76
66213;SHT31;53015;50.046;8.238;2023-02-10T14:14:50;7.31;70.79
66213;SHT31;53015;50.046;8.238;2023-02-10T14:17:20;7.39;71.18
66213;SHT31;53015;50.046;8.238;2023-02-10T14:19:46;7.32;70.81
66213;SHT31;53015;50.046;8.238;2023-02-10T14:22:22;7.34;71.35
66213;SHT31;53015;50.046;8.238;2023-02-10T14:24:49;7.25;71.63
66213;SHT31;53015;50.046;8.238;2023-02-10T14:27:15;7.10;71.77
66213;SHT31;53015;50.046;8.238;2023-02-10T14:29:48;7.07;71.44
66213;SHT31;53015;50.046;8.238;2023-02-10T14:32:15;6.93;71.91
66213;SHT31;53015;50.046;8.238;2023-02-10T14:34:52;6.91;71.58
66213;SHT31;53015;50.046;8.238;2023-02-10T14:37:20;6.86;72.29
66213;SHT31;53015;50.046;8.238;2023-02-10T14:39:50;6.75;72.35
66213;SHT31;53015;50.046;8.238;2023-02-10T14:42:16;6.66;72.65
66213;SHT31;53015;50.046;8.238;2023-02-10T14:44:45;6.46;72.69
66213;SHT31;53015;50.046;8.238;2023-02-10T14:47:15;6.39;73.11
66213;SHT31;53015;50.046;8.238;2023-02-10T14:49:41;6.35;73.62
66213;SHT31;53015;50.046;8.238;2023-02-10T14:52:20;6.36;73.72
66213;SHT31;53015;50.046;8.238;2023-02-10T14:54:46;6.35;73.62
66213;SHT31;53015;50.046;8.238;2023-02-10T14:57:12;6.17;74.36
66213;SHT31;53015;50.046;8.238;2023-02-10T14:59:38;6.07;74.02
66213;SHT31;53015;50.046;8.238;2023-02-10T15:02:16;6.04;74.08
66213;SHT31;53015;50.046;8.238;2023-02-10T15:04:43;6.05;74.78
66213;SHT31;53015;50.046;8.238;2023-02-10T15:07:12;5.85;74.99
66213;SHT31;53015;50.046;8.238;2023-02-10T15:09:42;5.74;75.56
66213;SHT31;53015;50.046;8.238;2023-02-10T15:12:11;5.76;76.30
66213;SHT31;53015;50.046;8.238;2023-02-10T15:14:42;5.74;76.18
66213;SHT31;53015;50.046;8.238;2023-02-10T15:17:12;5.63;76.19
66213;SHT31;53015;50.046;8.238;2023-02-10T15:19:51;5.55;76.74
66213;SHT31;53015;50.046;8.238;2023-02-10T15:22:36;5.59;76.56
66213;SHT31;53015;50.046;8.238;2023-02-10T15:25:28;5.59;76.36
66213;SHT31;53015;50.046;8.238;2023-02-10T15:27:55;5.55;76.93
66213;SHT31;53015;50.046;8.238;2023-02-10T15:30:22;5.73;76.34
66213;SHT31;53015;50.046;8.238;2023-02-10T15:32:49;5.55;76.41
66213;SHT31;53015;50.046;8.238;2023-02-10T15:35:16;5.41;77.31
66213;SHT31;53015;50.046;8.238;2023-02-10T15:37:41;5.58;76.42
66213;SHT31;53015;50.046;8.238;2023-02-10T15:40:17;5.62;75.74
66213;SHT31;53015;50.046;8.238;2023-02-10T15:42:42;5.56;76.55
66213;SHT31;53015;50.046;8.238;2023-02-10T15:45:13;5.45;75.38
66213;SHT31;53015;50.046;8.238;2023-02-10T15:47:45;5.41;75.17
66213;SHT31;53015;50.046;8.238;2023-02-10T15:50:14;5.41;75.37
66213;SHT31;53015;50.046;8.238;2023-02-10T15:52:41;5.38;75.54
66213;SHT31;53015;50.046;8.238;2023-02-10T15:55:14;5.24;76.40